createdAt,value
2019-04-14T00:00:07.572Z,787.2
2019-04-14T00:00:15.015Z,787.2
2019-04-14T00:00:21.578Z,787.18
2019-04-14T00:00:30.036Z,787.17
2019-04-14T00:00:36.639Z,787.18
2019-04-14T00:00:44.522Z,787.16
2019-04-14T00:00:53.254Z,787.16
2019-04-14T00:00:59.673Z,787.14
2019-04-14T00:01:07.213Z,787.16
2019-04-14T00:01:14.814Z,787.14
2019-04-14T00:01:21.609Z,787.13
2019-04-14T00:01:28.304Z,787.15
2019-04-14T00:01:34.770Z,787.15
2019-04-14T00:01:41.233Z,787.13
2019-04-14T00:01:48.498Z,787.11
2019-04-14T00:01:56.569Z,787.09
2019-04-14T00:02:03.162Z,787.12
2019-04-14T00:02:10.390Z,787.07
2019-04-14T00:02:17.049Z,787.09
2019-04-14T00:02:23.603Z,787.09
2019-04-14T00:02:30.137Z,787.09
2019-04-14T00:02:38.201Z,787.07
2019-04-14T00:02:45.495Z,787.1
2019-04-14T00:02:53.289Z,787.07
2019-04-14T00:02:59.773Z,787.06
2019-04-14T00:03:06.569Z,787.09
2019-04-14T00:03:12.962Z,787.08
2019-04-14T00:03:19.329Z,787.08
2019-04-14T00:03:26.077Z,787.07
2019-04-14T00:03:32.484Z,787.05
2019-04-14T00:03:40.002Z,787.06
2019-04-14T00:03:47.597Z,787.03
2019-04-14T00:03:55.119Z,787.04
2019-04-14T00:04:01.618Z,787.06
2019-04-14T00:04:09.500Z,787.02
2019-04-14T00:04:18.012Z,787.01
2019-04-14T00:04:26.811Z,786.99
2019-04-14T00:04:34.057Z,787.04
2019-04-14T00:04:42.141Z,787.03
2019-04-14T00:04:48.672Z,786.99
2019-04-14T00:04:55.053Z,786.95
2019-04-14T00:05:01.845Z,786.95
2019-04-14T00:05:10.377Z,786.98
2019-04-14T00:05:16.890Z,786.98
2019-04-14T00:05:24.057Z,786.98
2019-04-14T00:05:36.974Z,786.97
2019-04-14T00:05:47.164Z,786.97
2019-04-14T00:05:54.733Z,786.95
2019-04-14T00:06:04.698Z,786.96
2019-04-14T00:06:12.067Z,786.93
2019-04-14T00:06:20.200Z,786.93
2019-04-14T00:06:28.646Z,786.93
2019-04-14T00:06:35.119Z,786.95
2019-04-14T00:06:41.872Z,786.93
2019-04-14T00:06:51.163Z,786.95
2019-04-14T00:06:59.941Z,786.92
2019-04-14T00:07:10.080Z,786.93
2019-04-14T00:07:18.733Z,786.92
2019-04-14T00:07:25.447Z,786.88
2019-04-14T00:07:32.678Z,786.91
2019-04-14T00:07:41.336Z,786.94
2019-04-14T00:07:49.527Z,786.89
2019-04-14T00:07:58.079Z,786.92
2019-04-14T00:08:06.663Z,786.92
2019-04-14T00:08:14.150Z,786.91
2019-04-14T00:08:21.971Z,786.91
2019-04-14T00:08:29.566Z,786.91
2019-04-14T00:08:37.181Z,786.89
2019-04-14T00:08:45.734Z,786.9
2019-04-14T00:08:54.303Z,786.86
2019-04-14T00:09:03.135Z,786.86
2019-04-14T00:09:09.611Z,786.87
2019-04-14T00:09:16.202Z,786.86
2019-04-14T00:09:25.148Z,786.85
2019-04-14T00:09:35.702Z,786.88
2019-04-14T00:09:43.134Z,786.89
2019-04-14T00:09:50.628Z,786.86
2019-04-14T00:09:58.471Z,786.78
2019-04-14T00:10:07.102Z,786.76
2019-04-14T00:10:15.965Z,786.86
2019-04-14T00:10:24.583Z,786.84
2019-04-14T00:10:31.134Z,786.82
2019-04-14T00:10:38.622Z,786.83
2019-04-14T00:10:48.504Z,786.83
2019-04-14T00:10:57.166Z,786.83
2019-04-14T00:11:03.966Z,786.81
2019-04-14T00:11:12.549Z,786.81
2019-04-14T00:11:19.057Z,786.81
2019-04-14T00:11:26.643Z,786.76
2019-04-14T00:11:33.069Z,786.79
2019-04-14T00:11:39.456Z,786.8
2019-04-14T00:11:45.919Z,786.77
2019-04-14T00:11:54.652Z,786.77
2019-04-14T00:12:10.502Z,786.78
2019-04-14T00:12:18.647Z,786.76
2019-04-14T00:12:27.288Z,786.78
2019-04-14T00:12:35.827Z,786.76
2019-04-14T00:12:44.764Z,786.77
2019-04-14T00:12:55.534Z,786.78
2019-04-14T00:13:02.496Z,786.73
2019-04-14T00:13:11.758Z,786.72
2019-04-14T00:13:19.486Z,786.78
2019-04-14T00:13:27.077Z,786.76
2019-04-14T00:13:35.645Z,786.74
2019-04-14T00:13:43.479Z,786.77
2019-04-14T00:13:52.334Z,786.75
2019-04-14T00:14:00.939Z,786.71
2019-04-14T00:14:08.214Z,786.76
2019-04-14T00:14:16.246Z,786.74
2019-04-14T00:14:27.093Z,786.73
2019-04-14T00:14:35.666Z,786.75
2019-04-14T00:14:44.587Z,786.72
2019-04-14T00:14:55.394Z,786.71
2019-04-14T00:15:02.463Z,786.73
2019-04-14T00:15:49.006Z,786.71
2019-04-14T00:16:00.657Z,786.69
2019-04-14T00:16:08.160Z,786.72
2019-04-14T00:16:16.268Z,786.73
2019-04-14T00:16:23.480Z,786.7
2019-04-14T00:16:30.215Z,786.74
2019-04-14T00:16:38.008Z,786.68
2019-04-14T00:16:44.576Z,786.71
2019-04-14T00:16:52.855Z,786.69
2019-04-14T00:17:00.429Z,786.72
2019-04-14T00:17:08.722Z,786.67
2019-04-14T00:17:16.982Z,786.68
2019-04-14T00:17:23.789Z,786.7
2019-04-14T00:17:30.562Z,786.65
2019-04-14T00:17:36.927Z,786.68
2019-04-14T00:17:44.194Z,786.69
2019-04-14T00:17:52.341Z,786.67
2019-04-14T00:18:01.003Z,786.67
2019-04-14T00:18:08.259Z,786.68
2019-04-14T00:18:15.087Z,786.67
2019-04-14T00:18:21.610Z,786.68
2019-04-14T00:18:28.011Z,786.69
2019-04-14T00:18:34.495Z,786.67
2019-04-14T00:18:42.531Z,786.64
2019-04-14T00:18:49.831Z,786.65
2019-04-14T00:18:57.654Z,786.69
2019-04-14T00:19:04.389Z,786.67
2019-04-14T00:19:10.820Z,786.68
2019-04-14T00:19:17.338Z,786.66
2019-04-14T00:19:24.596Z,786.66
2019-04-14T00:19:32.635Z,786.63
2019-04-14T00:19:39.132Z,786.56
2019-04-14T00:19:47.700Z,786.59
2019-04-14T00:19:55.247Z,786.62
2019-04-14T00:20:02.908Z,786.58
2019-04-14T00:20:10.366Z,786.61
2019-04-14T00:20:18.490Z,786.6
2019-04-14T00:20:24.983Z,786.56
2019-04-14T00:20:31.499Z,786.55
2019-04-14T00:20:38.224Z,786.54
2019-04-14T00:20:44.760Z,786.59
2019-04-14T00:20:51.204Z,786.55
2019-04-14T00:20:57.695Z,786.54
2019-04-14T00:21:04.422Z,786.52
2019-04-14T00:21:12.855Z,786.52
2019-04-14T00:21:20.163Z,786.53
2019-04-14T00:21:27.995Z,786.51
2019-04-14T00:21:34.603Z,786.5
2019-04-14T00:21:41.091Z,786.5
2019-04-14T00:21:48.381Z,786.47
2019-04-14T00:21:56.632Z,786.45
2019-04-14T00:22:05.158Z,786.43
2019-04-14T00:22:12.490Z,786.44
2019-04-14T00:22:19.175Z,786.46
2019-04-14T00:22:32.163Z,786.46
2019-04-14T00:22:40.213Z,786.45
2019-04-14T00:22:46.799Z,786.42
2019-04-14T00:22:55.188Z,786.41
2019-04-14T00:23:02.180Z,786.35
2019-04-14T00:23:08.755Z,786.41
2019-04-14T00:23:15.948Z,786.37
2019-04-14T00:23:22.349Z,786.36
2019-04-14T00:23:29.045Z,786.36
2019-04-14T00:23:35.563Z,786.42
2019-04-14T00:23:42.062Z,786.38
2019-04-14T00:23:50.144Z,786.41
2019-04-14T00:23:56.607Z,786.39
2019-04-14T00:24:04.997Z,786.37
2019-04-14T00:24:11.633Z,786.38
2019-04-14T00:24:18.410Z,786.38
2019-04-14T00:24:26.966Z,786.36
2019-04-14T00:24:33.529Z,786.37
2019-04-14T00:24:40.239Z,786.38
2019-04-14T00:24:48.807Z,786.35
2019-04-14T00:24:55.340Z,786.34
2019-04-14T00:25:02.353Z,786.35
2019-04-14T00:25:10.705Z,786.32
2019-04-14T00:25:19.354Z,786.3
2019-04-14T00:25:26.173Z,786.35
2019-04-14T00:25:32.571Z,786.31
2019-04-14T00:25:39.758Z,786.29
2019-04-14T00:25:46.267Z,786.33
2019-04-14T00:25:53.025Z,786.25
2019-04-14T00:25:59.450Z,786.27
2019-04-14T00:26:05.973Z,786.25
2019-04-14T00:26:12.289Z,786.26
2019-04-14T00:26:19.157Z,786.25
2019-04-14T00:26:26.931Z,786.23
2019-04-14T00:26:37.896Z,786.26
2019-04-14T00:26:46.596Z,786.23
2019-04-14T00:26:53.852Z,786.21
2019-04-14T00:27:00.335Z,786.21
2019-04-14T00:27:08.510Z,786.21
2019-04-14T00:27:14.949Z,786.2
2019-04-14T00:27:22.488Z,786.19
2019-04-14T00:27:30.258Z,786.19
2019-04-14T00:27:36.697Z,786.18
2019-04-14T00:27:43.199Z,786.19
2019-04-14T00:27:49.986Z,786.2
2019-04-14T00:27:56.417Z,786.2
2019-04-14T00:28:03.006Z,786.16
2019-04-14T00:28:09.488Z,786.17
2019-04-14T00:28:16.338Z,786.17
2019-04-14T00:28:22.859Z,786.18
2019-04-14T00:28:29.249Z,786.17
2019-04-14T00:28:35.764Z,786.16
2019-04-14T00:28:42.590Z,786.13
2019-04-14T00:28:49.043Z,786.13
2019-04-14T00:28:55.581Z,786.12
2019-04-14T00:29:04.572Z,786.16
2019-04-14T00:29:13.879Z,786.13
2019-04-14T00:29:20.324Z,786.16
2019-04-14T00:29:28.430Z,786.14
2019-04-14T00:29:35.016Z,786.11
2019-04-14T00:29:42.203Z,786.11
2019-04-14T00:29:48.753Z,786.09
2019-04-14T00:29:55.377Z,786.08
2019-04-14T00:30:03.330Z,786.11
2019-04-14T00:30:10.526Z,786.08
2019-04-14T00:30:17.273Z,786.11
2019-04-14T00:30:25.906Z,786.09
2019-04-14T00:30:33.460Z,786.08
2019-04-14T00:30:40.479Z,786.03
2019-04-14T00:30:46.970Z,786.08
2019-04-14T00:30:54.193Z,786.05
2019-04-14T00:31:00.663Z,786.05
2019-04-14T00:31:07.319Z,786.03
2019-04-14T00:31:13.860Z,786.05
2019-04-14T00:31:20.278Z,786.06
2019-04-14T00:31:27.046Z,786.06
2019-04-14T00:31:38.809Z,786.01
2019-04-14T00:31:45.508Z,786.03
2019-04-14T00:32:00.626Z,786.03
2019-04-14T00:32:09.422Z,786.02
2019-04-14T00:32:19.070Z,786.02
2019-04-14T00:32:26.858Z,786
2019-04-14T00:32:35.241Z,786.01
2019-04-14T00:32:42.170Z,786.01
2019-04-14T00:32:48.765Z,786.01
2019-04-14T00:32:59.220Z,785.97
2019-04-14T00:33:07.052Z,785.99
2019-04-14T00:33:16.912Z,785.94
2019-04-14T00:33:23.533Z,785.99
2019-04-14T00:33:30.159Z,785.98
2019-04-14T00:33:36.679Z,785.97
2019-04-14T00:33:43.235Z,785.94
2019-04-14T00:33:49.869Z,785.97
2019-04-14T00:33:57.078Z,785.94
2019-04-14T00:34:07.124Z,785.95
2019-04-14T00:34:14.576Z,785.9
2019-04-14T00:34:22.350Z,785.91
2019-04-14T00:34:30.891Z,785.86
2019-04-14T00:34:37.629Z,785.87
2019-04-14T00:34:44.177Z,785.86
2019-04-14T00:34:53.517Z,785.84
2019-04-14T00:35:01.708Z,785.88
2019-04-14T00:35:10.101Z,785.84
2019-04-14T00:35:18.581Z,785.88
2019-04-14T00:35:26.317Z,785.88
2019-04-14T00:35:34.189Z,785.85
2019-04-14T00:35:42.677Z,785.86
2019-04-14T00:35:49.547Z,785.86
2019-04-14T00:35:58.050Z,785.86
2019-04-14T00:36:07.272Z,785.85
2019-04-14T00:36:14.067Z,785.87
2019-04-14T00:36:21.806Z,785.85
2019-04-14T00:36:28.319Z,785.87
2019-04-14T00:36:34.775Z,785.85
2019-04-14T00:36:41.581Z,785.82
2019-04-14T00:36:50.110Z,785.84
2019-04-14T00:36:56.587Z,785.85
2019-04-14T00:37:04.172Z,785.86
2019-04-14T00:37:13.891Z,785.86
2019-04-14T00:37:21.305Z,785.87
2019-04-14T00:37:29.220Z,785.85
2019-04-14T00:37:37.948Z,785.83
2019-04-14T00:37:45.055Z,785.87
2019-04-14T00:37:51.906Z,785.86
2019-04-14T00:38:04.119Z,785.84
2019-04-14T00:38:10.583Z,785.84
2019-04-14T00:38:17.406Z,785.83
2019-04-14T00:38:25.971Z,785.8
2019-04-14T00:38:33.123Z,785.86
2019-04-14T00:38:41.047Z,785.8
2019-04-14T00:38:47.772Z,785.83
2019-04-14T00:38:56.134Z,785.85
2019-04-14T00:39:03.163Z,785.82
2019-04-14T00:39:09.590Z,785.85
2019-04-14T00:39:16.164Z,785.82
2019-04-14T00:39:23.057Z,785.82
2019-04-14T00:39:33.528Z,785.79
2019-04-14T00:39:40.774Z,785.82
2019-04-14T00:39:47.396Z,785.82
2019-04-14T00:39:54.339Z,785.82
2019-04-14T00:40:03.948Z,785.84
2019-04-14T00:40:10.478Z,785.83
2019-04-14T00:40:17.221Z,785.83
2019-04-14T00:40:26.864Z,785.81
2019-04-14T00:40:38.983Z,785.82
2019-04-14T00:40:45.403Z,785.82
2019-04-14T00:40:52.462Z,785.83
2019-04-14T00:40:59.108Z,785.81
2019-04-14T00:41:07.097Z,785.8
2019-04-14T00:41:14.410Z,785.83
2019-04-14T00:41:43.535Z,785.78
2019-04-14T00:42:10.081Z,785.8
2019-04-14T00:42:16.930Z,785.79
2019-04-14T00:42:23.400Z,785.79
2019-04-14T00:42:29.842Z,785.77
2019-04-14T00:42:36.451Z,785.73
2019-04-14T00:42:43.754Z,785.74
2019-04-14T00:42:50.287Z,785.75
2019-04-14T00:42:56.732Z,785.72
2019-04-14T00:43:03.520Z,785.72
2019-04-14T00:43:11.291Z,785.7
2019-04-14T00:43:17.763Z,785.73
2019-04-14T00:43:25.201Z,785.75
2019-04-14T00:43:33.009Z,785.74
2019-04-14T00:43:39.572Z,785.73
2019-04-14T00:43:46.020Z,785.73
2019-04-14T00:43:52.790Z,785.75
2019-04-14T00:44:00.014Z,785.71
2019-04-14T00:44:08.524Z,785.72
2019-04-14T00:44:15.454Z,785.73
2019-04-14T00:44:21.813Z,785.7
2019-04-14T00:44:29.485Z,785.72
2019-04-14T00:44:36.490Z,785.7
2019-04-14T00:44:43.767Z,785.7
2019-04-14T00:44:53.741Z,785.73
2019-04-14T00:45:00.444Z,785.69
2019-04-14T00:45:09.039Z,785.69
2019-04-14T00:45:15.474Z,785.7
2019-04-14T00:45:56.711Z,785.72
2019-04-14T00:46:09.940Z,785.74
2019-04-14T00:46:16.812Z,785.74
2019-04-14T00:46:24.063Z,785.73
2019-04-14T00:46:35.606Z,785.72
2019-04-14T00:46:43.784Z,785.73
2019-04-14T00:46:53.768Z,785.7
2019-04-14T00:47:00.596Z,785.7
2019-04-14T00:47:07.885Z,785.71
2019-04-14T00:47:15.735Z,785.73
2019-04-14T00:47:24.579Z,785.76
2019-04-14T00:47:33.113Z,785.73
2019-04-14T00:48:15.851Z,785.77
2019-04-14T00:48:29.743Z,785.78
2019-04-14T00:48:38.640Z,785.81
2019-04-14T00:48:47.282Z,785.8
2019-04-14T00:48:55.944Z,785.81
2019-04-14T00:49:02.805Z,785.83
2019-04-14T00:49:12.126Z,785.81
2019-04-14T00:49:20.767Z,785.79
2019-04-14T00:49:28.897Z,785.79
2019-04-14T00:49:35.389Z,785.8
2019-04-14T00:49:41.857Z,785.82
2019-04-14T00:49:48.711Z,785.79
2019-04-14T00:49:59.388Z,785.84
2019-04-14T00:50:09.860Z,785.85
2019-04-14T00:50:16.790Z,785.88
2019-04-14T00:50:23.263Z,785.89
2019-04-14T00:50:29.751Z,785.87
2019-04-14T00:50:36.584Z,785.85
2019-04-14T00:50:45.137Z,785.89
2019-04-14T00:50:53.820Z,785.87
2019-04-14T00:51:02.655Z,785.93
2019-04-14T00:51:13.302Z,785.9
2019-04-14T00:51:20.595Z,785.91
2019-04-14T00:51:27.362Z,785.94
2019-04-14T00:51:40.557Z,785.96
2019-04-14T00:51:50.615Z,785.97
2019-04-14T00:51:59.730Z,785.96
2019-04-14T00:52:09.925Z,785.98
2019-04-14T00:52:18.860Z,785.98
2019-04-14T00:52:27.603Z,786
2019-04-14T00:52:35.584Z,785.99
2019-04-14T00:52:42.309Z,785.98
2019-04-14T00:52:48.817Z,786.01
2019-04-14T00:52:56.448Z,785.99
2019-04-14T00:53:03.436Z,786.02
2019-04-14T00:53:10.634Z,786.05
2019-04-14T00:53:18.486Z,786.02
2019-04-14T00:53:27.239Z,786
2019-04-14T00:53:35.924Z,786.01
2019-04-14T00:53:42.434Z,786.03
2019-04-14T00:53:49.119Z,786.01
2019-04-14T00:53:57.870Z,786
2019-04-14T00:54:08.600Z,786.01
2019-04-14T00:54:15.434Z,786.02
2019-04-14T00:54:23.880Z,786.04
2019-04-14T00:54:30.405Z,786.03
2019-04-14T00:54:37.841Z,786.06
2019-04-14T00:54:45.642Z,786.08
2019-04-14T00:54:52.867Z,786.06
2019-04-14T00:54:59.515Z,786.05
2019-04-14T00:55:07.541Z,786.05
2019-04-14T00:55:14.777Z,786.07
2019-04-14T00:55:21.273Z,786.07
2019-04-14T00:55:27.917Z,786.09
2019-04-14T00:55:34.366Z,786.08
2019-04-14T00:55:42.176Z,786.08
2019-04-14T00:55:48.932Z,786.1
2019-04-14T00:55:56.090Z,786.1
2019-04-14T00:56:03.948Z,786.12
2019-04-14T00:56:11.271Z,786.11
2019-04-14T00:56:18.276Z,786.1
2019-04-14T00:56:25.827Z,786.09
2019-04-14T00:56:32.250Z,786.09
2019-04-14T00:56:39.003Z,786.14
2019-04-14T00:56:45.459Z,786.15
2019-04-14T00:56:51.931Z,786.13
2019-04-14T00:56:58.456Z,786.16
2019-04-14T00:57:05.886Z,786.16
2019-04-14T00:57:12.350Z,786.19
2019-04-14T00:57:19.827Z,786.15
2019-04-14T00:57:26.828Z,786.15
2019-04-14T00:57:33.319Z,786.17
2019-04-14T00:57:40.619Z,786.17
2019-04-14T00:57:47.132Z,786.17
2019-04-14T00:57:53.779Z,786.14
2019-04-14T00:58:00.272Z,786.17
2019-04-14T00:58:06.791Z,786.15
2019-04-14T00:58:14.656Z,786.2
2019-04-14T00:58:23.500Z,786.15
2019-04-14T00:58:30.775Z,786.15
2019-04-14T00:58:38.919Z,786.17
2019-04-14T00:58:45.335Z,786.19
2019-04-14T00:58:53.843Z,786.23
2019-04-14T00:59:01.376Z,786.18
2019-04-14T00:59:09.244Z,786.2
2019-04-14T00:59:15.692Z,786.16
2019-04-14T00:59:22.230Z,786.2
2019-04-14T00:59:29.009Z,786.17
2019-04-14T00:59:36.227Z,786.18
2019-04-14T00:59:42.687Z,786.18
2019-04-14T00:59:50.779Z,786.18
2019-04-14T00:59:58.093Z,786.2
2019-04-14T01:00:05.956Z,786.21
2019-04-14T01:00:17.239Z,786.19
2019-04-14T01:00:28.380Z,786.16
2019-04-14T01:00:36.456Z,786.19
2019-04-14T01:00:43.703Z,786.17
2019-04-14T01:00:53.684Z,786.17
2019-04-14T01:01:01.247Z,786.2
2019-04-14T01:01:11.102Z,786.17
2019-04-14T01:01:17.541Z,786.16
2019-04-14T01:01:24.320Z,786.16
2019-04-14T01:01:30.803Z,786.16
2019-04-14T01:01:37.233Z,786.18
2019-04-14T01:01:43.766Z,786.14
2019-04-14T01:01:50.488Z,786.17
2019-04-14T01:01:56.934Z,786.15
2019-04-14T01:02:04.233Z,786.18
2019-04-14T01:02:12.372Z,786.13
2019-04-14T01:02:18.893Z,786.13
2019-04-14T01:02:26.155Z,786.17
2019-04-14T01:02:33.968Z,786.17
2019-04-14T01:02:40.692Z,786.16
2019-04-14T01:02:47.168Z,786.21
2019-04-14T01:02:54.453Z,786.18
2019-04-14T01:03:01.184Z,786.16
2019-04-14T01:03:09.114Z,786.2
2019-04-14T01:03:15.521Z,786.19
2019-04-14T01:03:21.994Z,786.17
2019-04-14T01:03:28.706Z,786.2
2019-04-14T01:03:37.249Z,786.16
2019-04-14T01:03:43.752Z,786.17
2019-04-14T01:03:50.488Z,786.17
2019-04-14T01:03:56.935Z,786.15
2019-04-14T01:04:03.441Z,786.14
2019-04-14T01:04:09.773Z,786.12
2019-04-14T01:04:16.521Z,786.17
2019-04-14T01:04:22.952Z,786.17
2019-04-14T01:04:29.442Z,786.18
2019-04-14T01:04:36.099Z,786.2
2019-04-14T01:04:42.629Z,786.2
2019-04-14T01:04:49.828Z,786.19
2019-04-14T01:04:57.656Z,786.2
2019-04-14T01:05:05.175Z,786.18
2019-04-14T01:05:13.111Z,786.19
2019-04-14T01:05:19.527Z,786.2
2019-04-14T01:05:26.246Z,786.16
2019-04-14T01:05:39.308Z,786.22
2019-04-14T01:05:48.153Z,786.18
2019-04-14T01:05:56.758Z,786.13
2019-04-14T01:06:05.396Z,786.2
2019-04-14T01:06:15.035Z,786.2
2019-04-14T01:06:22.834Z,786.19
2019-04-14T01:06:30.116Z,786.2
2019-04-14T01:06:36.878Z,786.2
2019-04-14T01:06:44.696Z,786.25
2019-04-14T01:06:53.343Z,786.15
2019-04-14T01:07:00.080Z,786.14
2019-04-14T01:07:08.624Z,786.18
2019-04-14T01:07:17.230Z,786.16
2019-04-14T01:07:26.094Z,786.13
2019-04-14T01:07:34.762Z,786.15
2019-04-14T01:07:41.292Z,786.14
2019-04-14T01:07:50.025Z,786.15
2019-04-14T01:07:56.565Z,786.12
2019-04-14T01:08:05.245Z,786.16
2019-04-14T01:08:14.032Z,786.17
2019-04-14T01:08:22.740Z,786.18
2019-04-14T01:08:31.311Z,786.19
2019-04-14T01:08:40.202Z,786.2
2019-04-14T01:08:48.863Z,786.17
2019-04-14T01:08:57.531Z,786.11
2019-04-14T01:09:04.239Z,786.08
2019-04-14T01:09:10.744Z,786.1
2019-04-14T01:09:19.358Z,786.17
2019-04-14T01:09:26.125Z,786.15
2019-04-14T01:09:32.657Z,786.17
2019-04-14T01:09:39.905Z,786.15
2019-04-14T01:09:47.159Z,786.15
2019-04-14T01:09:56.048Z,786.15
2019-04-14T01:10:05.938Z,786.19
2019-04-14T01:10:12.715Z,786.16
2019-04-14T01:10:21.092Z,786.12
2019-04-14T01:10:29.953Z,786.1
2019-04-14T01:10:36.778Z,786.12
2019-04-14T01:10:43.273Z,786.14
2019-04-14T01:10:50.493Z,786.13
2019-04-14T01:10:59.093Z,786.12
2019-04-14T01:11:08.131Z,786.12
2019-04-14T01:11:15.967Z,786.11
2019-04-14T01:11:22.418Z,786.12
2019-04-14T01:11:29.146Z,786.16
2019-04-14T01:11:35.681Z,786.11
2019-04-14T01:11:42.133Z,786.14
2019-04-14T01:11:49.589Z,786.14
2019-04-14T01:11:58.134Z,786.14
2019-04-14T01:12:06.045Z,786.09
2019-04-14T01:12:14.824Z,786.12
2019-04-14T01:12:23.421Z,786.09
2019-04-14T01:12:32.003Z,786.09
2019-04-14T01:12:38.742Z,786.1
2019-04-14T01:12:46.039Z,786.1
2019-04-14T01:12:53.904Z,786.09
2019-04-14T01:13:02.687Z,786.11
2019-04-14T01:13:17.762Z,786.04
2019-04-14T01:13:26.678Z,786.05
2019-04-14T01:13:35.306Z,786.06
2019-04-14T01:13:42.568Z,786.07
2019-04-14T01:13:49.411Z,786.06
2019-04-14T01:13:57.975Z,786.06
2019-04-14T01:14:05.827Z,786.04
2019-04-14T01:14:12.615Z,786.06
2019-04-14T01:14:19.801Z,786.06
2019-04-14T01:14:27.727Z,786.06
2019-04-14T01:14:35.042Z,786.03
2019-04-14T01:14:41.718Z,786
2019-04-14T01:14:51.659Z,785.98
2019-04-14T01:14:58.997Z,785.99
2019-04-14T01:15:09.202Z,786
2019-04-14T01:15:17.844Z,786
2019-04-14T01:15:25.366Z,786.01
2019-04-14T01:15:50.953Z,785.99
2019-04-14T01:16:28.121Z,785.92
2019-04-14T01:16:36.429Z,785.87
2019-04-14T01:16:42.978Z,785.96
2019-04-14T01:16:51.582Z,785.91
2019-04-14T01:16:58.792Z,785.95
2019-04-14T01:17:06.922Z,785.88
2019-04-14T01:17:15.493Z,785.91
2019-04-14T01:17:22.775Z,785.91
2019-04-14T01:17:29.486Z,785.86
2019-04-14T01:17:37.981Z,785.87
2019-04-14T01:17:46.071Z,785.87
2019-04-14T01:17:54.889Z,785.88
2019-04-14T01:18:01.477Z,785.86
2019-04-14T01:18:10.030Z,785.87
2019-04-14T01:18:18.889Z,785.86
2019-04-14T01:18:27.550Z,785.83
2019-04-14T01:18:34.876Z,785.86
2019-04-14T01:18:42.879Z,785.83
2019-04-14T01:18:51.542Z,785.85
2019-04-14T01:18:58.896Z,785.85
2019-04-14T01:19:06.855Z,785.83
2019-04-14T01:19:14.114Z,785.82
2019-04-14T01:19:21.990Z,785.81
2019-04-14T01:19:29.474Z,785.84
2019-04-14T01:19:39.392Z,785.79
2019-04-14T01:19:46.749Z,785.79
2019-04-14T01:19:54.877Z,785.73
2019-04-14T01:20:01.420Z,785.78
2019-04-14T01:20:09.989Z,785.74
2019-04-14T01:20:17.501Z,785.76
2019-04-14T01:20:25.324Z,785.72
2019-04-14T01:20:31.815Z,785.7
2019-04-14T01:20:40.601Z,785.7
2019-04-14T01:20:49.137Z,785.69
2019-04-14T01:20:57.829Z,785.67
2019-04-14T01:21:06.682Z,785.68
2019-04-14T01:21:15.220Z,785.66
2019-04-14T01:21:22.525Z,785.63
2019-04-14T01:21:31.175Z,785.62
2019-04-14T01:21:39.196Z,785.66
2019-04-14T01:21:46.497Z,785.62
2019-04-14T01:21:54.558Z,785.62
2019-04-14T01:22:01.017Z,785.6
2019-04-14T01:22:09.515Z,785.62
2019-04-14T01:22:16.264Z,785.55
2019-04-14T01:22:22.773Z,785.57
2019-04-14T01:22:31.360Z,785.59
2019-04-14T01:22:40.109Z,785.57
2019-04-14T01:22:48.740Z,785.54
2019-04-14T01:22:56.030Z,785.54
2019-04-14T01:23:04.073Z,785.5
2019-04-14T01:23:11.387Z,785.45
2019-04-14T01:23:21.418Z,785.51
2019-04-14T01:23:30.382Z,785.43
2019-04-14T01:23:39.068Z,785.38
2019-04-14T01:23:48.006Z,785.38
2019-04-14T01:23:54.487Z,785.37
2019-04-14T01:24:03.100Z,785.42
2019-04-14T01:24:09.622Z,785.4
2019-04-14T01:24:17.095Z,785.41
2019-04-14T01:24:24.974Z,785.4
2019-04-14T01:24:31.533Z,785.37
2019-04-14T01:24:38.964Z,785.39
2019-04-14T01:24:46.735Z,785.34
2019-04-14T01:24:55.260Z,785.37
2019-04-14T01:25:02.297Z,785.35
2019-04-14T01:25:11.416Z,785.37
2019-04-14T01:25:19.348Z,785.31
2019-04-14T01:25:28.106Z,785.3
2019-04-14T01:25:34.631Z,785.3
2019-04-14T01:25:43.234Z,785.24
2019-04-14T01:25:51.970Z,785.28
2019-04-14T01:26:00.645Z,785.26
2019-04-14T01:26:09.305Z,785.26
2019-04-14T01:26:17.901Z,785.24
2019-04-14T01:26:25.245Z,785.24
2019-04-14T01:26:33.123Z,785.22
2019-04-14T01:26:40.643Z,785.23
2019-04-14T01:26:49.210Z,785.26
2019-04-14T01:26:57.859Z,785.22
2019-04-14T01:27:08.019Z,785.22
2019-04-14T01:27:15.353Z,785.19
2019-04-14T01:27:23.416Z,785.19
2019-04-14T01:27:31.774Z,785.2
2019-04-14T01:27:40.549Z,785.22
2019-04-14T01:27:49.471Z,785.17
2019-04-14T01:27:56.777Z,785.18
2019-04-14T01:28:06.682Z,785.19
2019-04-14T01:28:13.712Z,785.18
2019-04-14T01:28:22.144Z,785.12
2019-04-14T01:28:30.693Z,785.17
2019-04-14T01:28:38.299Z,785.18
2019-04-14T01:28:48.279Z,785.17
2019-04-14T01:28:56.789Z,785.18
2019-04-14T01:29:05.740Z,785.18
2019-04-14T01:29:14.164Z,785.17
2019-04-14T01:29:21.786Z,785.15
2019-04-14T01:29:29.666Z,785.17
2019-04-14T01:29:37.002Z,785.17
2019-04-14T01:29:44.861Z,785.12
2019-04-14T01:29:52.404Z,785.18
2019-04-14T01:30:00.223Z,785.15
2019-04-14T01:30:09.535Z,785.17
2019-04-14T01:30:17.609Z,785.19
2019-04-14T01:30:26.186Z,785.19
2019-04-14T01:30:33.460Z,785.11
2019-04-14T01:30:41.513Z,785.14
2019-04-14T01:30:50.023Z,785.14
2019-04-14T01:30:57.406Z,785.13
2019-04-14T01:31:07.548Z,785.12
2019-04-14T01:31:14.725Z,785.16
2019-04-14T01:31:21.419Z,785.15
2019-04-14T01:31:29.539Z,785.18
2019-04-14T01:31:36.793Z,785.16
2019-04-14T01:31:44.627Z,785.17
2019-04-14T01:31:53.544Z,785.17
2019-04-14T01:32:00.137Z,785.14
2019-04-14T01:32:08.794Z,785.16
2019-04-14T01:32:16.227Z,785.1
2019-04-14T01:32:24.688Z,785.15
2019-04-14T01:32:32.985Z,785.17
2019-04-14T01:32:41.515Z,785.16
2019-04-14T01:32:49.977Z,785.16
2019-04-14T01:32:56.498Z,785.12
2019-04-14T01:33:04.003Z,785.1
2019-04-14T01:33:13.845Z,785.15
2019-04-14T01:33:21.371Z,785.16
2019-04-14T01:33:29.294Z,785.14
2019-04-14T01:33:37.842Z,785.13
2019-04-14T01:33:45.223Z,785.13
2019-04-14T01:33:53.354Z,785.13
2019-04-14T01:34:01.853Z,785.1
2019-04-14T01:34:09.174Z,785.15
2019-04-14T01:34:17.224Z,785.13
2019-04-14T01:34:25.871Z,785.1
2019-04-14T01:34:34.738Z,785.08
2019-04-14T01:34:43.384Z,785.11
2019-04-14T01:34:54.260Z,785.08
2019-04-14T01:35:03.158Z,785.11
2019-04-14T01:35:13.745Z,785.1
2019-04-14T01:35:20.278Z,785.09
2019-04-14T01:35:27.081Z,785.08
2019-04-14T01:35:35.723Z,785.08
2019-04-14T01:35:45.125Z,785.11
2019-04-14T01:35:55.194Z,785.11
2019-04-14T01:36:02.503Z,785.06
2019-04-14T01:36:11.318Z,785.11
2019-04-14T01:36:21.199Z,785.07
2019-04-14T01:36:29.605Z,785.08
2019-04-14T01:36:36.648Z,785.11
2019-04-14T01:36:43.160Z,785.1
2019-04-14T01:36:51.800Z,785.1
2019-04-14T01:36:59.327Z,785.14
2019-04-14T01:37:07.991Z,785.08
2019-04-14T01:37:14.461Z,785.11
2019-04-14T01:37:20.936Z,785.09
2019-04-14T01:37:28.967Z,785.12
2019-04-14T01:37:36.224Z,785.11
2019-04-14T01:37:44.899Z,785.13
2019-04-14T01:37:52.896Z,785.06
2019-04-14T01:37:59.430Z,785.09
2019-04-14T01:38:10.282Z,785.12
2019-04-14T01:38:18.943Z,785.11
2019-04-14T01:38:27.515Z,785.12
2019-04-14T01:38:34.335Z,785.11
2019-04-14T01:38:42.715Z,785.12
2019-04-14T01:38:51.264Z,785.14
2019-04-14T01:38:58.928Z,785.13
2019-04-14T01:39:06.834Z,785.13
2019-04-14T01:39:13.290Z,785.15
2019-04-14T01:39:20.548Z,785.16
2019-04-14T01:39:30.665Z,785.18
2019-04-14T01:39:39.300Z,785.13
2019-04-14T01:39:48.098Z,785.12
2019-04-14T01:39:55.237Z,785.09
2019-04-14T01:40:03.286Z,785.11
2019-04-14T01:40:11.965Z,785.1
2019-04-14T01:40:20.567Z,785.11
2019-04-14T01:40:29.185Z,785.16
2019-04-14T01:40:35.918Z,785.15
2019-04-14T01:40:44.450Z,785.13
2019-04-14T01:40:53.043Z,785.1